sensor_id;sensor_type;location;lat;lon;timestamp;P1;durP1;ratioP1;P2;durP2;ratioP2
57321;SDS011;43159;51.006;18.224;2024-01-15T00:05:07;13.20;;;4.20;;
57321;SDS011;43159;51.006;18.224;2024-01-15T00:14:49;21.10;;;5.00;;
57321;SDS011;43159;51.006;18.224;2024-01-15T00:24:30;12.50;;;4.20;;
57321;SDS011;43159;51.006;18.224;2024-01-15T00:34:12;14.70;;;5.90;;
57321;SDS011;43159;51.006;18.224;2024-01-15T00:43:56;13.40;;;4.40;;
57321;SDS011;43159;51.006;18.224;2024-01-15T00:53:38;13.90;;;4.80;;
57321;SDS011;43159;51.006;18.224;2024-01-15T01:03:20;12.50;;;4.70;;
57321;SDS011;43159;51.006;18.224;2024-01-15T01:13:04;8.40;;;2.30;;
57321;SDS011;43159;51.006;18.224;2024-01-15T01:22:46;10.90;;;4.40;;
57321;SDS011;43159;51.006;18.224;2024-01-15T01:32:29;14.50;;;5.50;;
57321;SDS011;43159;51.006;18.224;2024-01-15T01:42:11;15.90;;;6.00;;
57321;SDS011;43159;51.006;18.224;2024-01-15T01:51:57;13.00;;;5.00;;
57321;SDS011;43159;51.006;18.224;2024-01-15T02:01:41;14.20;;;4.70;;
57321;SDS011;43159;51.006;18.224;2024-01-15T02:11:24;11.60;;;4.10;;
57321;SDS011;43159;51.006;18.224;2024-01-15T02:21:10;13.10;;;5.70;;
57321;SDS011;43159;51.006;18.224;2024-01-15T02:30:52;14.20;;;5.20;;
57321;SDS011;43159;51.006;18.224;2024-01-15T02:40:34;12.60;;;4.00;;
57321;SDS011;43159;51.006;18.224;2024-01-15T02:50:16;16.10;;;4.70;;
57321;SDS011;43159;51.006;18.224;2024-01-15T02:59:58;13.70;;;4.10;;
57321;SDS011;43159;51.006;18.224;2024-01-15T03:09:39;12.40;;;4.60;;
57321;SDS011;43159;51.006;18.224;2024-01-15T03:19:21;13.20;;;4.50;;
57321;SDS011;43159;51.006;18.224;2024-01-15T03:29:03;14.90;;;4.40;;
57321;SDS011;43159;51.006;18.224;2024-01-15T03:38:45;13.50;;;6.10;;
57321;SDS011;43159;51.006;18.224;2024-01-15T03:48:27;15.00;;;6.90;;
57321;SDS011;43159;51.006;18.224;2024-01-15T03:58:09;14.00;;;6.80;;
57321;SDS011;43159;51.006;18.224;2024-01-15T04:07:51;15.40;;;6.40;;
57321;SDS011;43159;51.006;18.224;2024-01-15T04:17:32;14.90;;;5.50;;
57321;SDS011;43159;51.006;18.224;2024-01-15T04:34:31;13.00;;;5.40;;
57321;SDS011;43159;51.006;18.224;2024-01-15T04:44:13;14.00;;;5.50;;
57321;SDS011;43159;51.006;18.224;2024-01-15T04:53:55;11.90;;;5.20;;
57321;SDS011;43159;51.006;18.224;2024-01-15T05:03:37;16.60;;;7.80;;
57321;SDS011;43159;51.006;18.224;2024-01-15T05:13:19;10.60;;;3.50;;
57321;SDS011;43159;51.006;18.224;2024-01-15T05:23:02;11.40;;;4.30;;
57321;SDS011;43159;51.006;18.224;2024-01-15T05:32:44;22.50;;;6.70;;
57321;SDS011;43159;51.006;18.224;2024-01-15T05:42:25;21.00;;;7.40;;
57321;SDS011;43159;51.006;18.224;2024-01-15T05:52:09;9.00;;;3.20;;
57321;SDS011;43159;51.006;18.224;2024-01-15T06:01:50;12.60;;;5.10;;
57321;SDS011;43159;51.006;18.224;2024-01-15T06:11:34;15.00;;;6.00;;
57321;SDS011;43159;51.006;18.224;2024-01-15T06:21:19;17.10;;;8.50;;
57321;SDS011;43159;51.006;18.224;2024-01-15T06:31:06;18.00;;;6.00;;
57321;SDS011;43159;51.006;18.224;2024-01-15T06:40:48;19.10;;;9.10;;
57321;SDS011;43159;51.006;18.224;2024-01-15T06:50:32;26.20;;;14.10;;
57321;SDS011;43159;51.006;18.224;2024-01-15T07:00:15;26.10;;;14.50;;
57321;SDS011;43159;51.006;18.224;2024-01-15T07:09:58;25.80;;;11.50;;
57321;SDS011;43159;51.006;18.224;2024-01-15T07:19:40;22.00;;;10.00;;
57321;SDS011;43159;51.006;18.224;2024-01-15T07:29:24;18.00;;;8.60;;
57321;SDS011;43159;51.006;18.224;2024-01-15T07:39:08;18.50;;;7.20;;
57321;SDS011;43159;51.006;18.224;2024-01-15T07:48:50;27.00;;;6.70;;
57321;SDS011;43159;51.006;18.224;2024-01-15T07:58:41;19.00;;;6.20;;
57321;SDS011;43159;51.006;18.224;2024-01-15T08:08:24;17.60;;;5.50;;
57321;SDS011;43159;51.006;18.224;2024-01-15T08:18:11;15.60;;;5.70;;
57321;SDS011;43159;51.006;18.224;2024-01-15T08:27:55;14.10;;;5.70;;
57321;SDS011;43159;51.006;18.224;2024-01-15T08:37:41;17.20;;;6.40;;
57321;SDS011;43159;51.006;18.224;2024-01-15T08:47:23;16.70;;;6.20;;
57321;SDS011;43159;51.006;18.224;2024-01-15T08:57:06;15.80;;;7.20;;
57321;SDS011;43159;51.006;18.224;2024-01-15T09:01:57;17.80;;;7.90;;
57321;SDS011;43159;51.006;18.224;2024-01-15T09:11:42;13.50;;;5.50;;
57321;SDS011;43159;51.006;18.224;2024-01-15T09:21:25;12.60;;;5.00;;
57321;SDS011;43159;51.006;18.224;2024-01-15T09:31:07;18.40;;;6.30;;
57321;SDS011;43159;51.006;18.224;2024-01-15T09:40:57;13.40;;;6.10;;
57321;SDS011;43159;51.006;18.224;2024-01-15T09:50:39;15.10;;;6.40;;
57321;SDS011;43159;51.006;18.224;2024-01-15T10:00:23;17.60;;;7.00;;
57321;SDS011;43159;51.006;18.224;2024-01-15T10:10:05;14.30;;;5.60;;
57321;SDS011;43159;51.006;18.224;2024-01-15T10:19:49;17.60;;;7.00;;
57321;SDS011;43159;51.006;18.224;2024-01-15T10:29:35;23.80;;;6.90;;
57321;SDS011;43159;51.006;18.224;2024-01-15T10:39:21;14.40;;;6.60;;
57321;SDS011;43159;51.006;18.224;2024-01-15T10:49:04;14.90;;;6.20;;
57321;SDS011;43159;51.006;18.224;2024-01-15T10:58:47;21.80;;;7.50;;
57321;SDS011;43159;51.006;18.224;2024-01-15T11:08:35;15.40;;;5.40;;
57321;SDS011;43159;51.006;18.224;2024-01-15T11:18:27;13.30;;;4.40;;
57321;SDS011;43159;51.006;18.224;2024-01-15T11:28:51;16.60;;;4.90;;
57321;SDS011;43159;51.006;18.224;2024-01-15T11:38:40;19.10;;;6.20;;
57321;SDS011;43159;51.006;18.224;2024-01-15T11:48:43;12.80;;;4.90;;
57321;SDS011;43159;51.006;18.224;2024-01-15T11:58:42;9.20;;;3.30;;
57321;SDS011;43159;51.006;18.224;2024-01-15T12:08:25;12.40;;;5.40;;
57321;SDS011;43159;51.006;18.224;2024-01-15T12:18:10;12.80;;;5.60;;
57321;SDS011;43159;51.006;18.224;2024-01-15T12:27:55;18.20;;;6.00;;
57321;SDS011;43159;51.006;18.224;2024-01-15T12:37:41;14.70;;;6.50;;
57321;SDS011;43159;51.006;18.224;2024-01-15T12:47:38;12.00;;;4.70;;
57321;SDS011;43159;51.006;18.224;2024-01-15T12:57:32;14.60;;;4.40;;
57321;SDS011;43159;51.006;18.224;2024-01-15T13:07:14;17.10;;;6.00;;
57321;SDS011;43159;51.006;18.224;2024-01-15T13:16:58;15.20;;;5.40;;
57321;SDS011;43159;51.006;18.224;2024-01-15T13:26:45;17.60;;;7.30;;
57321;SDS011;43159;51.006;18.224;2024-01-15T13:36:27;25.60;;;6.00;;
57321;SDS011;43159;51.006;18.224;2024-01-15T13:46:14;16.00;;;5.40;;
57321;SDS011;43159;51.006;18.224;2024-01-15T13:55:57;13.60;;;5.60;;
57321;SDS011;43159;51.006;18.224;2024-01-15T14:05:39;11.00;;;4.00;;
57321;SDS011;43159;51.006;18.224;2024-01-15T14:15:22;15.40;;;5.80;;
57321;SDS011;43159;51.006;18.224;2024-01-15T14:25:04;18.00;;;5.80;;
57321;SDS011;43159;51.006;18.224;2024-01-15T14:34:46;15.10;;;4.70;;
57321;SDS011;43159;51.006;18.224;2024-01-15T14:44:27;14.30;;;5.90;;
57321;SDS011;43159;51.006;18.224;2024-01-15T14:54:15;21.20;;;5.30;;
57321;SDS011;43159;51.006;18.224;2024-01-15T15:03:57;18.10;;;5.10;;
57321;SDS011;43159;51.006;18.224;2024-01-15T15:13:48;14.40;;;5.80;;
57321;SDS011;43159;51.006;18.224;2024-01-15T15:23:33;13.80;;;4.30;;
57321;SDS011;43159;51.006;18.224;2024-01-15T15:40:31;11.60;;;4.30;;
57321;SDS011;43159;51.006;18.224;2024-01-15T15:50:13;13.50;;;4.90;;
57321;SDS011;43159;51.006;18.224;2024-01-15T15:59:57;17.20;;;7.30;;
57321;SDS011;43159;51.006;18.224;2024-01-15T16:09:40;21.80;;;7.80;;
57321;SDS011;43159;51.006;18.224;2024-01-15T16:19:24;15.40;;;5.10;;
57321;SDS011;43159;51.006;18.224;2024-01-15T16:29:07;11.80;;;5.20;;
57321;SDS011;43159;51.006;18.224;2024-01-15T16:38:50;11.90;;;3.50;;
57321;SDS011;43159;51.006;18.224;2024-01-15T16:48:33;14.60;;;5.40;;
57321;SDS011;43159;51.006;18.224;2024-01-15T16:58:15;17.20;;;5.40;;
57321;SDS011;43159;51.006;18.224;2024-01-15T17:07:57;17.10;;;4.40;;
57321;SDS011;43159;51.006;18.224;2024-01-15T17:17:39;12.10;;;4.10;;
57321;SDS011;43159;51.006;18.224;2024-01-15T17:27:23;15.90;;;6.10;;
57321;SDS011;43159;51.006;18.224;2024-01-15T17:37:05;15.60;;;6.00;;
57321;SDS011;43159;51.006;18.224;2024-01-15T17:46:53;13.30;;;3.10;;
57321;SDS011;43159;51.006;18.224;2024-01-15T17:56:50;9.40;;;2.70;;
57321;SDS011;43159;51.006;18.224;2024-01-15T18:06:34;16.20;;;5.20;;
57321;SDS011;43159;51.006;18.224;2024-01-15T18:16:18;12.20;;;5.30;;
57321;SDS011;43159;51.006;18.224;2024-01-15T18:26:17;15.80;;;7.00;;
57321;SDS011;43159;51.006;18.224;2024-01-15T18:36:02;12.70;;;5.10;;
57321;SDS011;43159;51.006;18.224;2024-01-15T18:45:47;13.00;;;4.70;;
57321;SDS011;43159;51.006;18.224;2024-01-15T18:55:30;18.80;;;7.70;;
57321;SDS011;43159;51.006;18.224;2024-01-15T19:05:15;11.80;;;4.70;;
57321;SDS011;43159;51.006;18.224;2024-01-15T19:14:59;12.10;;;3.90;;
57321;SDS011;43159;51.006;18.224;2024-01-15T19:24:43;15.50;;;6.00;;
57321;SDS011;43159;51.006;18.224;2024-01-15T19:34:27;15.80;;;6.40;;
57321;SDS011;43159;51.006;18.224;2024-01-15T19:44:12;8.30;;;4.20;;
57321;SDS011;43159;51.006;18.224;2024-01-15T19:53:57;11.40;;;4.60;;
57321;SDS011;43159;51.006;18.224;2024-01-15T20:03:39;13.60;;;4.70;;
57321;SDS011;43159;51.006;18.224;2024-01-15T20:13:34;22.60;;;6.90;;
57321;SDS011;43159;51.006;18.224;2024-01-15T20:23:21;14.60;;;5.80;;
57321;SDS011;43159;51.006;18.224;2024-01-15T20:33:03;12.60;;;4.80;;
57321;SDS011;43159;51.006;18.224;2024-01-15T20:42:46;16.50;;;6.90;;
57321;SDS011;43159;51.006;18.224;2024-01-15T20:52:29;11.00;;;4.70;;
57321;SDS011;43159;51.006;18.224;2024-01-15T21:02:11;12.20;;;3.20;;
57321;SDS011;43159;51.006;18.224;2024-01-15T21:11:55;1.50;;;1.40;;
57321;SDS011;43159;51.006;18.224;2024-01-15T21:21:39;13.40;;;3.80;;
57321;SDS011;43159;51.006;18.224;2024-01-15T21:31:21;8.90;;;2.90;;
57321;SDS011;43159;51.006;18.224;2024-01-15T21:41:03;12.60;;;5.80;;
57321;SDS011;43159;51.006;18.224;2024-01-15T21:50:46;32.70;;;7.80;;
57321;SDS011;43159;51.006;18.224;2024-01-15T22:00:32;19.30;;;6.70;;
57321;SDS011;43159;51.006;18.224;2024-01-15T22:10:14;19.60;;;7.50;;
57321;SDS011;43159;51.006;18.224;2024-01-15T22:19:57;28.50;;;11.00;;
57321;SDS011;43159;51.006;18.224;2024-01-15T22:29:39;18.80;;;5.70;;
57321;SDS011;43159;51.006;18.224;2024-01-15T22:39:22;11.00;;;3.90;;
57321;SDS011;43159;51.006;18.224;2024-01-15T22:49:04;22.10;;;5.40;;
57321;SDS011;43159;51.006;18.224;2024-01-15T22:58:46;9.40;;;3.20;;
57321;SDS011;43159;51.006;18.224;2024-01-15T23:08:29;5.00;;;3.10;;
57321;SDS011;43159;51.006;18.224;2024-01-15T23:18:10;13.10;;;5.20;;
57321;SDS011;43159;51.006;18.224;2024-01-15T23:27:53;14.80;;;5.20;;
57321;SDS011;43159;51.006;18.224;2024-01-15T23:37:39;13.40;;;4.10;;
57321;SDS011;43159;51.006;18.224;2024-01-15T23:47:21;10.90;;;3.20;;
57321;SDS011;43159;51.006;18.224;2024-01-15T23:57:06;11.80;;;3.80;;
